createdAt,value
2023-04-02T00:01:39.346Z,11.20
2023-04-02T00:04:14.853Z,11.20
2023-04-02T00:06:47.124Z,11.30
2023-04-02T00:09:14.069Z,11.30
2023-04-02T00:11:49.674Z,11.40
2023-04-02T00:14:27.733Z,11.30
2023-04-02T00:16:59.819Z,11.30
2023-04-02T00:19:46.966Z,11.30
2023-04-02T00:22:25.242Z,11.20
2023-04-02T00:24:54.569Z,11.10
2023-04-02T00:27:23.237Z,11.10
2023-04-02T00:29:56.586Z,11.00
2023-04-02T00:32:33.083Z,11.10
2023-04-02T00:35:01.598Z,11.10
2023-04-02T00:37:38.871Z,11.10
2023-04-02T00:40:16.945Z,11.00
2023-04-02T00:42:44.896Z,10.90
2023-04-02T00:45:24.347Z,10.90
2023-04-02T00:47:53.398Z,11.00
2023-04-02T00:50:35.137Z,11.00
2023-04-02T00:53:23.886Z,11.10
2023-04-02T00:55:51.204Z,11.00
2023-04-02T00:58:27.354Z,11.00
2023-04-02T01:00:54.896Z,10.90
2023-04-02T01:03:28.805Z,10.90
2023-04-02T01:06:17.244Z,10.90
2023-04-02T01:09:02.090Z,10.80
2023-04-02T01:12:02.362Z,10.80
2023-04-02T01:15:04.628Z,10.80
2023-04-02T01:18:00.139Z,10.80
2023-04-02T01:20:35.882Z,10.90
2023-04-02T01:23:35.564Z,10.90
2023-04-02T01:26:11.202Z,10.90
2023-04-02T01:29:09.068Z,10.70
2023-04-02T01:31:41.326Z,10.80
2023-04-02T01:34:13.992Z,10.70
2023-04-02T01:36:59.111Z,10.70
2023-04-02T01:39:56.950Z,10.80
2023-04-02T01:42:33.387Z,10.70
2023-04-02T01:45:14.555Z,10.70
2023-04-02T01:47:44.012Z,10.70
2023-04-02T01:50:14.731Z,10.90
2023-04-02T01:52:46.844Z,10.90
2023-04-02T01:55:21.256Z,10.80
2023-04-02T01:57:52.040Z,10.90
2023-04-02T02:00:20.348Z,10.80
2023-04-02T02:02:52.187Z,10.90
2023-04-02T02:05:23.176Z,10.80
2023-04-02T02:07:52.585Z,10.80
2023-04-02T02:10:29.262Z,10.90
2023-04-02T02:13:00.467Z,10.80
2023-04-02T02:15:28.690Z,10.80
2023-04-02T02:18:02.919Z,10.90
2023-04-02T02:20:33.608Z,10.90
2023-04-02T02:23:03.732Z,10.90
2023-04-02T02:25:36.479Z,10.90
2023-04-02T02:28:07.452Z,10.90
2023-04-02T02:30:48.468Z,10.90
2023-04-02T02:33:47.771Z,11.00
2023-04-02T02:36:40.149Z,10.90
2023-04-02T02:39:21.323Z,10.90
2023-04-02T02:41:57.282Z,10.90
2023-04-02T02:44:36.385Z,10.80
2023-04-02T02:47:16.733Z,10.80
2023-04-02T02:49:50.858Z,10.70
2023-04-02T02:52:26.972Z,10.70
2023-04-02T02:55:20.921Z,10.80
2023-04-02T02:58:23.958Z,10.80
2023-04-02T03:01:02.538Z,10.70
2023-04-02T03:03:32.808Z,10.70
2023-04-02T03:06:09.324Z,10.70
2023-04-02T03:09:12.150Z,10.60
2023-04-02T03:12:14.782Z,10.70
2023-04-02T03:15:02.326Z,10.50
2023-04-02T03:18:00.706Z,10.60
2023-04-02T03:20:52.568Z,10.60
2023-04-02T03:23:27.600Z,10.70
2023-04-02T03:26:23.269Z,10.60
2023-04-02T03:29:14.235Z,10.50
2023-04-02T03:32:28.202Z,10.40
2023-04-02T03:35:03.121Z,10.50
2023-04-02T03:37:49.849Z,10.50
2023-04-02T03:40:29.458Z,10.60
2023-04-02T03:43:13.085Z,10.50
2023-04-02T03:45:50.392Z,10.50
2023-04-02T03:48:49.313Z,10.50
2023-04-02T03:51:52.076Z,10.40
2023-04-02T03:54:20.835Z,10.40
2023-04-02T03:56:51.495Z,10.50
2023-04-02T03:59:38.153Z,10.50
2023-04-02T04:02:43.373Z,10.50
2023-04-02T04:05:31.547Z,10.50
2023-04-02T04:08:25.758Z,10.60
2023-04-02T04:10:57.327Z,10.50
2023-04-02T04:14:03.292Z,10.50
2023-04-02T04:16:40.248Z,10.60
2023-04-02T04:19:19.509Z,10.60
2023-04-02T04:21:47.162Z,10.60
2023-04-02T04:24:27.678Z,10.60
2023-04-02T04:27:34.646Z,10.40
2023-04-02T04:30:17.168Z,10.60
2023-04-02T04:33:04.135Z,10.50
2023-04-02T04:35:37.178Z,10.60
2023-04-02T04:38:33.172Z,10.60
2023-04-02T04:41:03.760Z,10.60
2023-04-02T04:43:46.463Z,10.70
2023-04-02T04:46:42.293Z,10.70
2023-04-02T04:49:33.458Z,10.70
2023-04-02T04:52:17.657Z,10.70
2023-04-02T04:54:46.509Z,10.70
2023-04-02T04:57:23.939Z,10.70
2023-04-02T05:00:37.629Z,10.70
2023-04-02T05:03:17.214Z,10.70
2023-04-02T05:05:44.990Z,10.80
2023-04-02T05:08:28.028Z,10.70
2023-04-02T05:11:02.691Z,10.60
2023-04-02T05:13:39.614Z,10.70
2023-04-02T05:16:13.424Z,10.70
2023-04-02T05:18:47.614Z,10.70
2023-04-02T05:21:34.566Z,10.60
2023-04-02T05:24:31.299Z,10.80
2023-04-02T05:27:02.513Z,10.70
2023-04-02T05:29:38.631Z,10.70
2023-04-02T05:32:12.191Z,10.70
2023-04-02T05:34:41.308Z,10.90
2023-04-02T05:37:19.695Z,10.80
2023-04-02T05:39:56.737Z,10.80
2023-04-02T05:42:28.210Z,10.80
2023-04-02T05:45:06.788Z,10.90
2023-04-02T05:47:36.011Z,10.90
2023-04-02T05:50:49.293Z,10.80
2023-04-02T05:53:30.706Z,10.90
2023-04-02T05:56:06.741Z,11.00
2023-04-02T05:58:45.772Z,11.00
2023-04-02T06:02:00.530Z,11.00
2023-04-02T06:04:42.199Z,11.10
2023-04-02T06:07:16.248Z,10.90
2023-04-02T06:09:51.020Z,10.90
2023-04-02T06:12:29.338Z,10.90
2023-04-02T06:14:59.294Z,11.00
2023-04-02T06:17:29.758Z,11.00
2023-04-02T06:20:01.332Z,11.00
2023-04-02T06:22:40.084Z,11.00
2023-04-02T06:25:22.875Z,11.10
2023-04-02T06:27:53.147Z,11.10
2023-04-02T06:30:25.871Z,11.20
2023-04-02T06:32:53.409Z,11.20
2023-04-02T06:35:28.979Z,11.00
2023-04-02T06:38:04.253Z,11.20
2023-04-02T06:40:51.530Z,11.10
2023-04-02T06:43:47.281Z,11.20
2023-04-02T06:46:52.507Z,11.40
2023-04-02T06:49:38.567Z,11.30
2023-04-02T06:52:18.305Z,11.20
2023-04-02T06:54:45.683Z,11.20
2023-04-02T06:57:13.636Z,11.40
2023-04-02T06:59:44.710Z,11.30
2023-04-02T07:02:16.147Z,11.40
2023-04-02T07:04:43.736Z,11.50
2023-04-02T07:07:10.805Z,11.60
2023-04-02T07:09:42.501Z,11.70
2023-04-02T07:12:20.446Z,11.80
2023-04-02T07:14:48.107Z,11.90
2023-04-02T07:17:19.863Z,11.90
2023-04-02T07:19:49.973Z,11.90
2023-04-02T07:22:20.621Z,11.90
2023-04-02T07:24:52.323Z,11.70
2023-04-02T07:27:19.371Z,11.90
2023-04-02T07:29:46.309Z,11.90
2023-04-02T07:32:14.275Z,12.00
2023-04-02T07:34:42.577Z,11.90
2023-04-02T07:37:14.566Z,12.00
2023-04-02T07:39:42.352Z,11.90
2023-04-02T07:42:09.889Z,11.80
2023-04-02T07:44:36.934Z,11.90
2023-04-02T07:47:04.181Z,11.80
2023-04-02T07:49:32.059Z,11.80
2023-04-02T07:51:59.045Z,11.80
2023-04-02T07:54:27.218Z,11.90
2023-04-02T07:56:54.220Z,12.00
2023-04-02T07:59:22.322Z,11.80
2023-04-02T08:01:50.400Z,12.00
2023-04-02T08:04:19.932Z,12.00
2023-04-02T08:06:49.797Z,12.00
2023-04-02T08:09:18.769Z,12.10
2023-04-02T08:11:46.735Z,12.20
2023-04-02T08:14:13.916Z,12.30
2023-04-02T08:16:45.170Z,12.30
2023-04-02T08:19:13.242Z,12.50
2023-04-02T08:21:40.707Z,12.40
2023-04-02T08:24:08.437Z,12.30
2023-04-02T08:26:36.370Z,12.40
2023-04-02T08:29:03.852Z,12.40
2023-04-02T08:31:30.947Z,12.30
2023-04-02T08:33:58.853Z,12.20
2023-04-02T08:36:38.013Z,12.10
2023-04-02T08:39:06.755Z,11.90
2023-04-02T08:41:44.377Z,11.90
2023-04-02T08:44:29.732Z,12.00
2023-04-02T08:47:05.532Z,11.90
2023-04-02T08:49:58.984Z,11.90
2023-04-02T08:52:28.511Z,11.90
2023-04-02T08:54:58.006Z,11.80
2023-04-02T08:57:39.839Z,11.80
2023-04-02T09:00:26.008Z,11.80
2023-04-02T09:03:02.318Z,11.90
2023-04-02T09:05:36.725Z,12.00
2023-04-02T09:08:08.044Z,12.10
2023-04-02T09:10:45.585Z,12.30
2023-04-02T09:13:29.500Z,12.40
2023-04-02T09:16:21.393Z,12.50
2023-04-02T09:18:51.359Z,12.50
2023-04-02T09:21:29.069Z,12.50
2023-04-02T09:23:56.426Z,12.50
2023-04-02T09:26:29.429Z,12.60
2023-04-02T09:29:19.621Z,12.50
2023-04-02T09:32:18.339Z,12.40
2023-04-02T09:34:46.937Z,12.40
2023-04-02T09:37:22.978Z,12.30
2023-04-02T09:39:51.174Z,12.20
2023-04-02T09:42:36.506Z,12.20
2023-04-02T09:45:22.630Z,12.10
2023-04-02T09:47:51.535Z,12.10
2023-04-02T09:50:21.602Z,12.20
2023-04-02T09:52:49.806Z,12.20
2023-04-02T09:55:30.991Z,12.50
2023-04-02T09:58:27.228Z,12.90
2023-04-02T10:00:55.682Z,13.20
2023-04-02T10:03:28.575Z,13.40
2023-04-02T10:06:14.255Z,13.70
2023-04-02T10:08:45.614Z,13.70
2023-04-02T10:11:43.694Z,13.60
2023-04-02T10:14:45.837Z,13.70
2023-04-02T10:17:19.301Z,13.70
2023-04-02T10:19:52.436Z,13.70
2023-04-02T10:22:23.834Z,13.40
2023-04-02T10:24:53.967Z,13.40
2023-04-02T10:27:28.177Z,13.50
2023-04-02T10:30:58.386Z,13.60
2023-04-02T10:33:52.556Z,13.50
2023-04-02T10:37:09.129Z,13.50
2023-04-02T10:40:29.263Z,13.90
2023-04-02T10:43:45.004Z,14.10
2023-04-02T10:46:44.098Z,14.20
2023-04-02T10:49:54.961Z,14.10
2023-04-02T10:53:00.034Z,14.10
2023-04-02T10:56:08.892Z,13.70
2023-04-02T10:59:29.851Z,13.70
2023-04-02T11:02:54.091Z,13.50
2023-04-02T11:06:08.986Z,13.40
2023-04-02T11:09:19.045Z,13.30
2023-04-02T11:12:12.130Z,13.20
2023-04-02T11:15:04.744Z,13.20
2023-04-02T11:17:56.394Z,13.10
2023-04-02T11:21:01.352Z,13.10
2023-04-02T11:24:06.827Z,13.00
2023-04-02T11:26:54.457Z,13.30
2023-04-02T11:30:23.249Z,13.30
2023-04-02T11:33:48.078Z,13.10
2023-04-02T11:37:01.610Z,13.10
2023-04-02T11:39:57.533Z,13.20
2023-04-02T11:42:27.739Z,13.10
2023-04-02T12:37:07.992Z,11.00
2023-04-02T12:39:36.173Z,11.10
2023-04-02T12:42:04.256Z,11.10
2023-04-02T12:47:25.137Z,11.10
2023-04-02T12:49:54.708Z,11.20
2023-04-02T12:52:28.764Z,11.20
2023-04-02T12:55:47.885Z,11.30
2023-04-02T12:58:52.769Z,11.40
2023-04-02T13:01:27.712Z,11.40
2023-04-02T13:04:12.528Z,11.50
2023-04-02T13:06:53.201Z,11.50
2023-04-02T13:09:47.037Z,11.30
2023-04-02T13:12:44.863Z,11.20
2023-04-02T13:15:31.051Z,11.20
2023-04-02T13:18:13.600Z,11.00
2023-04-02T13:20:42.035Z,10.90
2023-04-02T13:23:27.604Z,10.80
2023-04-02T13:25:56.520Z,10.80
2023-04-02T13:28:25.989Z,10.90
2023-04-02T13:30:55.618Z,10.80
2023-04-02T13:33:25.260Z,10.80
2023-04-02T13:35:55.796Z,10.90
2023-04-02T13:38:26.666Z,11.10
2023-04-02T13:40:56.627Z,10.90
2023-04-02T13:43:27.605Z,10.90
2023-04-02T13:45:58.383Z,10.90
2023-04-02T13:48:31.896Z,10.90
2023-04-02T13:51:02.224Z,10.90
2023-04-02T13:53:35.045Z,11.20
2023-04-02T13:56:05.776Z,11.30
2023-04-02T13:58:34.801Z,11.40
2023-04-02T14:01:05.449Z,11.60
2023-04-02T14:03:38.602Z,11.70
2023-04-02T14:06:52.511Z,11.80
2023-04-02T14:09:57.730Z,11.90
2023-04-02T14:13:07.855Z,11.90
2023-04-02T14:16:14.651Z,11.90
2023-04-02T14:19:10.524Z,11.80
2023-04-02T14:22:29.228Z,11.70
2023-04-02T14:25:42.499Z,11.60
2023-04-02T14:28:47.110Z,11.50
2023-04-02T14:31:36.543Z,11.40
2023-04-02T14:34:36.437Z,11.40
2023-04-02T14:37:43.751Z,11.20
2023-04-02T14:40:38.515Z,11.20
2023-04-02T14:43:39.239Z,11.20
2023-04-02T14:46:12.253Z,11.20
2023-04-02T14:51:49.813Z,11.00
2023-04-02T14:54:25.047Z,10.90
2023-04-02T14:56:59.137Z,10.90
2023-04-02T15:00:04.997Z,10.80
2023-04-02T15:02:56.740Z,10.90
2023-04-02T15:05:47.706Z,10.90
2023-04-02T15:08:37.877Z,10.90
2023-04-02T15:11:27.632Z,11.00
2023-04-02T15:14:32.081Z,11.00
2023-04-02T15:17:03.048Z,11.00
2023-04-02T15:19:34.848Z,11.20
2023-04-02T15:22:29.701Z,11.10
2023-04-02T15:25:17.121Z,11.20
2023-04-02T15:28:07.819Z,11.20
2023-04-02T15:30:45.305Z,11.10
2023-04-02T15:33:54.266Z,11.10
2023-04-02T15:36:43.446Z,11.20
2023-04-02T15:42:48.453Z,11.00
2023-04-02T15:45:27.629Z,11.00
2023-04-02T15:48:15.177Z,11.00
2023-04-02T15:51:27.122Z,10.90
2023-04-02T15:54:32.265Z,10.80
2023-04-02T15:57:24.655Z,10.70
2023-04-02T16:00:32.237Z,10.80
2023-04-02T16:03:32.690Z,10.70
2023-04-02T16:06:28.762Z,10.60
2023-04-02T16:09:30.797Z,10.70
2023-04-02T16:12:19.931Z,10.70
2023-04-02T16:14:54.892Z,10.70
2023-04-02T16:17:44.510Z,10.40
2023-04-02T16:20:32.962Z,10.40
2023-04-02T16:23:22.352Z,10.50
2023-04-02T16:26:18.464Z,10.40
2023-04-02T16:29:08.001Z,10.30
2023-04-02T16:32:03.599Z,10.40
2023-04-02T16:34:57.667Z,10.40
2023-04-02T16:37:45.570Z,10.10
2023-04-02T16:40:37.879Z,10.10
2023-04-02T16:43:46.951Z,10.20
2023-04-02T16:50:06.525Z,10.20
2023-04-02T16:53:00.491Z,10.00
2023-04-02T16:55:53.800Z,9.90
2023-04-02T16:58:57.263Z,9.60
2023-04-02T17:01:47.563Z,9.80
2023-04-02T17:04:48.860Z,9.40
2023-04-02T17:07:55.795Z,9.50
2023-04-02T17:11:07.591Z,9.60
2023-04-02T17:14:16.223Z,9.40
2023-04-02T17:16:53.415Z,9.20
2023-04-02T17:19:29.399Z,9.10
2023-04-02T17:22:02.453Z,8.90
2023-04-02T17:25:02.358Z,9.00
2023-04-02T17:28:01.594Z,8.90
2023-04-02T17:31:03.488Z,8.90
2023-04-02T17:33:39.898Z,8.90
2023-04-02T17:36:47.306Z,9.00
2023-04-02T17:39:51.810Z,8.80
2023-04-02T17:43:01.867Z,8.50
2023-04-02T17:45:53.425Z,8.50
2023-04-02T17:48:53.526Z,8.50
2023-04-02T17:51:49.268Z,8.50
2023-04-02T17:54:39.760Z,8.50
2023-04-02T17:57:57.422Z,8.50
2023-04-02T18:01:06.277Z,8.50
2023-04-02T18:04:04.560Z,8.30
2023-04-02T18:06:55.447Z,8.40
2023-04-02T18:09:46.705Z,8.30
2023-04-02T18:13:00.587Z,8.20
2023-04-02T18:16:01.361Z,8.10
2023-04-02T18:18:53.391Z,8.10
2023-04-02T18:22:09.158Z,8.30
2023-04-02T18:25:18.177Z,8.20
2023-04-02T18:28:38.165Z,8.10
2023-04-02T18:31:23.511Z,8.30
2023-04-02T18:34:30.802Z,8.00
2023-04-02T18:38:01.466Z,7.80
2023-04-02T18:41:04.970Z,7.70
2023-04-02T18:44:25.636Z,7.80
2023-04-02T18:47:16.641Z,7.90
2023-04-02T18:50:13.845Z,7.90
2023-04-02T18:52:56.633Z,8.00
2023-04-02T18:55:37.129Z,8.00
2023-04-02T18:58:17.618Z,8.00
2023-04-02T19:01:06.837Z,8.00
2023-04-02T19:04:01.420Z,7.70
2023-04-02T19:07:02.633Z,7.50
2023-04-02T19:09:49.463Z,7.70
2023-04-02T19:15:29.276Z,7.30
2023-04-02T19:18:35.281Z,7.30
2023-04-02T19:21:32.108Z,7.40
2023-04-02T19:24:45.130Z,7.50
2023-04-02T19:27:38.363Z,7.40
2023-04-02T19:30:37.361Z,7.50
2023-04-02T19:33:40.743Z,7.50
2023-04-02T19:36:41.763Z,7.50
2023-04-02T19:39:54.950Z,7.60
2023-04-02T19:42:58.273Z,7.60
2023-04-02T19:45:51.499Z,7.40
2023-04-02T19:48:25.360Z,7.30
2023-04-02T19:50:59.460Z,7.30
2023-04-02T19:53:39.740Z,7.30
2023-04-02T19:56:14.174Z,7.00
2023-04-02T19:59:02.435Z,7.10
2023-04-02T20:01:45.381Z,7.40
2023-04-02T20:04:19.106Z,7.50
2023-04-02T20:06:50.875Z,7.50
2023-04-02T20:09:24.446Z,7.60
2023-04-02T20:12:04.148Z,7.60
2023-04-02T20:14:34.125Z,7.40
2023-04-02T20:17:02.229Z,7.20
2023-04-02T20:19:36.268Z,7.30
2023-04-02T20:22:09.160Z,7.40
2023-04-02T20:24:46.998Z,7.40
2023-04-02T20:27:23.550Z,7.60
2023-04-02T20:29:52.187Z,7.70
2023-04-02T20:32:24.295Z,7.60
2023-04-02T20:34:54.617Z,7.60
2023-04-02T20:37:25.706Z,7.60
2023-04-02T20:39:58.765Z,7.70
2023-04-02T20:42:31.960Z,7.60
2023-04-02T20:45:01.864Z,7.60
2023-04-02T20:47:31.641Z,7.60
2023-04-02T20:50:05.500Z,7.70
2023-04-02T20:52:36.208Z,7.80
2023-04-02T20:55:05.767Z,7.70
2023-04-02T20:57:33.937Z,7.60
2023-04-02T21:00:06.121Z,7.30
2023-04-02T21:02:37.275Z,7.40
2023-04-02T21:05:08.286Z,7.50
2023-04-02T21:07:44.845Z,7.60
2023-04-02T21:10:12.005Z,7.40
2023-04-02T21:12:41.807Z,7.30
2023-04-02T21:15:15.637Z,7.50
2023-04-02T21:17:47.554Z,7.50
2023-04-02T21:20:18.743Z,7.60
2023-04-02T21:22:51.067Z,7.70
2023-04-02T21:25:22.681Z,7.60
2023-04-02T21:27:53.320Z,7.70
2023-04-02T21:30:24.206Z,7.70
2023-04-02T21:32:54.867Z,7.60
2023-04-02T21:35:26.546Z,7.70
2023-04-02T21:37:54.271Z,7.60
2023-04-02T21:40:24.169Z,7.70
2023-04-02T21:42:57.199Z,7.70
2023-04-02T21:45:28.899Z,7.80
2023-04-02T21:47:59.219Z,7.70
2023-04-02T21:50:31.653Z,7.70
2023-04-02T21:53:01.309Z,7.60
2023-04-02T21:55:29.982Z,7.60
2023-04-02T21:57:59.644Z,7.60
2023-04-02T22:00:30.912Z,7.70
2023-04-02T22:03:03.212Z,7.70
2023-04-02T22:05:34.832Z,7.60
2023-04-02T22:08:02.974Z,7.60
2023-04-02T22:10:30.125Z,7.60
2023-04-02T22:12:58.413Z,7.50
2023-04-02T22:15:29.412Z,7.60
2023-04-02T22:17:59.642Z,7.40
2023-04-02T22:20:31.365Z,7.20
2023-04-02T22:23:01.706Z,7.30
2023-04-02T22:25:33.287Z,7.40
2023-04-02T22:28:02.272Z,7.40
2023-04-02T22:30:34.314Z,7.50
2023-04-02T22:33:02.450Z,7.50
2023-04-02T22:35:33.104Z,7.40
2023-04-02T22:38:04.674Z,7.30
2023-04-02T22:40:35.110Z,7.40
2023-04-02T22:43:07.028Z,7.50
2023-04-02T22:45:39.569Z,7.50
2023-04-02T22:48:14.598Z,7.60
2023-04-02T22:50:45.616Z,7.50
2023-04-02T22:53:16.103Z,7.60
2023-04-02T22:55:46.818Z,7.50
2023-04-02T22:58:13.771Z,7.50
2023-04-02T23:00:45.376Z,7.40
2023-04-02T23:03:13.649Z,7.40
2023-04-02T23:05:45.480Z,7.50
2023-04-02T23:08:15.300Z,7.40
2023-04-02T23:10:46.098Z,7.30
2023-04-02T23:13:15.472Z,7.40
2023-04-02T23:15:51.015Z,7.40
2023-04-02T23:18:26.678Z,7.40
2023-04-02T23:23:45.324Z,7.30
2023-04-02T23:26:24.141Z,7.30
2023-04-02T23:28:52.444Z,7.40
2023-04-02T23:31:24.780Z,7.40
2023-04-02T23:33:57.106Z,7.40
2023-04-02T23:36:41.124Z,7.40
2023-04-02T23:39:12.098Z,7.50
2023-04-02T23:41:45.540Z,7.40
2023-04-02T23:44:16.531Z,7.40
2023-04-02T23:46:46.029Z,7.40
2023-04-02T23:49:22.307Z,7.40
2023-04-02T23:51:53.749Z,7.30
2023-04-02T23:54:24.725Z,7.10
2023-04-02T23:56:56.800Z,7.30
2023-04-02T23:59:27.324Z,7.40
